Time;durP1;ratioP1;P1;durP2;ratioP2;P2;SDS_P1;SDS_P2;PMS_P1;PMS_P2;Temp;Humidity;BMP_temperature;BMP_pressure;BME280_temperature;BME280_humidity;BME280_pressure;Samples;Min_cycle;Max_cycle;Signal;HPM_P1;HPM_P2
2021/03/09 00:01:41;;;;;;;72.40;15.23;;;-1.10;1.00;;;;;;5133322;27;20261;-69
2021/03/09 00:04:07;;;;;;;73.78;13.32;;;-1.10;1.00;;;;;;5132860;27;20587;-69
2021/03/09 00:06:34;;;;;;;79.70;14.63;;;-1.10;1.00;;;;;;5131340;27;20227;-68
2021/03/09 00:09:00;;;;;;;70.57;13.27;;;-1.10;1.00;;;;;;5130057;27;20199;-69
2021/03/09 00:11:26;;;;;;;70.78;12.75;;;-1.10;1.00;;;;;;5133338;27;20202;-69
2021/03/09 00:13:53;;;;;;;71.18;13.73;;;-1.20;1.00;;;;;;5132729;27;20235;-69
2021/03/09 00:16:20;;;;;;;71.82;13.80;;;-1.20;1.00;;;;;;5132712;27;20247;-69
2021/03/09 00:18:46;;;;;;;77.20;14.73;;;-1.20;1.00;;;;;;5132867;27;20214;-68
2021/03/09 00:21:13;;;;;;;70.07;13.38;;;-1.30;1.00;;;;;;5133232;27;20203;-69
2021/03/09 00:23:39;;;;;;;72.82;14.48;;;-1.30;1.00;;;;;;5132623;27;20202;-69
2021/03/09 00:26:05;;;;;;;71.20;14.00;;;-1.30;1.00;;;;;;5132721;27;20677;-69
2021/03/09 00:28:32;;;;;;;69.70;13.48;;;-1.30;1.00;;;;;;5133170;27;20207;-69
2021/03/09 00:30:58;;;;;;;75.47;15.52;;;-1.40;1.00;;;;;;5132742;27;20723;-69
2021/03/09 00:33:25;;;;;;;72.78;14.05;;;-1.40;1.00;;;;;;5132404;27;20203;-69
2021/03/09 00:35:52;;;;;;;72.70;14.90;;;-1.50;1.00;;;;;;5132617;27;20247;-69
2021/03/09 00:38:18;;;;;;;71.53;13.65;;;-1.50;1.00;;;;;;5132591;27;20286;-69
2021/03/09 00:40:44;;;;;;;68.00;12.57;;;-1.50;1.00;;;;;;5132663;27;20302;-68
2021/03/09 00:43:11;;;;;;;68.15;12.63;;;-1.50;1.00;;;;;;5132591;27;20214;-69
2021/03/09 00:45:37;;;;;;;71.32;12.57;;;-1.50;1.00;;;;;;5131753;27;20631;-68
2021/03/09 00:48:04;;;;;;;70.50;13.25;;;-1.50;1.00;;;;;;5132296;27;20287;-69
2021/03/09 00:50:31;;;;;;;71.47;13.77;;;-1.60;1.00;;;;;;5132490;27;20293;-69
2021/03/09 00:52:57;;;;;;;71.40;13.88;;;-1.50;1.00;;;;;;5132422;27;20579;-69
2021/03/09 00:55:24;;;;;;;71.70;13.15;;;-1.60;1.00;;;;;;5132917;27;20234;-69
2021/03/09 00:57:57;;;;;;;69.40;13.50;;;-1.60;1.00;;;;;;5132350;27;20294;-69
2021/03/09 01:00:24;;;;;;;70.38;13.18;;;-1.60;1.00;;;;;;5132065;27;20585;-68
2021/03/09 01:02:50;;;;;;;70.80;14.80;;;-1.60;1.00;;;;;;5132423;27;20209;-69
2021/03/09 01:05:17;;;;;;;79.40;17.35;;;-1.70;1.00;;;;;;5132324;27;20592;-69
2021/03/09 01:07:44;;;;;;;71.85;13.60;;;-1.70;1.00;;;;;;5132182;27;20254;-69
2021/03/09 01:10:13;;;;;;;72.68;15.20;;;-1.70;1.00;;;;;;5132286;27;20293;-69
2021/03/09 01:12:39;;;;;;;70.35;12.90;;;-1.70;1.00;;;;;;5132241;27;20246;-69
2021/03/09 01:15:06;;;;;;;76.13;16.20;;;-1.70;1.00;;;;;;5132283;27;20239;-69
2021/03/09 01:17:33;;;;;;;75.85;17.00;;;-1.80;1.00;;;;;;5132216;27;20313;-69
2021/03/09 01:20:00;;;;;;;71.93;16.00;;;-1.80;1.00;;;;;;5132417;27;20211;-69
2021/03/09 01:22:26;;;;;;;74.25;14.80;;;-1.80;1.00;;;;;;5131980;27;20198;-69
2021/03/09 01:24:54;;;;;;;73.13;15.32;;;-1.80;1.00;;;;;;5131946;27;20225;-69
2021/03/09 01:27:20;;;;;;;72.40;14.18;;;-1.80;1.00;;;;;;5132046;27;20230;-68
2021/03/09 01:29:47;;;;;;;72.35;12.73;;;-1.80;1.00;;;;;;5132154;27;20206;-68
2021/03/09 01:32:13;;;;;;;70.15;13.40;;;-1.80;1.00;;;;;;5131816;27;20238;-69
2021/03/09 01:34:39;;;;;;;69.97;13.82;;;-1.80;1.00;;;;;;5132162;27;20290;-69
2021/03/09 01:37:06;;;;;;;71.80;14.45;;;-1.80;1.00;;;;;;5132093;27;20678;-69
2021/03/09 01:39:33;;;;;;;69.75;12.75;;;-1.80;1.00;;;;;;5132010;27;20206;-69
2021/03/09 01:42:00;;;;;;;72.00;13.38;;;-1.90;1.00;;;;;;5131822;27;20587;-69
2021/03/09 01:44:27;;;;;;;71.65;14.00;;;-1.90;1.00;;;;;;5132351;27;20207;-69
2021/03/09 01:46:57;;;;;;;70.28;13.20;;;-1.90;1.00;;;;;;5131737;27;20231;-69
2021/03/09 01:49:24;;;;;;;69.13;12.55;;;-1.90;1.00;;;;;;5132098;27;20238;-69
2021/03/09 01:51:51;;;;;;;72.80;13.93;;;-1.90;1.00;;;;;;5132268;27;20203;-69
2021/03/09 01:54:18;;;;;;;75.25;14.57;;;-1.90;1.00;;;;;;5131729;27;20732;-69
2021/03/09 01:56:45;;;;;;;72.72;13.98;;;-1.90;1.00;;;;;;5131856;27;20223;-69
2021/03/09 01:59:16;;;;;;;68.85;12.45;;;-1.90;1.00;;;;;;5136026;27;20214;-69
2021/03/09 02:01:42;;;;;;;74.20;15.02;;;-1.90;1.00;;;;;;5135629;27;20213;-69
2021/03/09 02:04:08;;;;;;;76.55;15.02;;;-1.90;1.00;;;;;;5135435;27;20625;-69
2021/03/09 02:06:35;;;;;;;81.43;16.65;;;-2.00;1.00;;;;;;5134247;27;20223;-69
2021/03/09 02:09:02;;;;;;;69.78;13.70;;;-2.00;1.00;;;;;;5134905;27;20690;-70
2021/03/09 02:11:40;;;;;;;70.28;13.32;;;-2.00;1.00;;;;;;5135452;27;20199;-69
2021/03/09 02:14:12;;;;;;;72.45;13.73;;;-2.00;1.00;;;;;;5127242;27;20198;-69
2021/03/09 02:16:47;;;;;;;71.47;15.20;;;-2.00;1.00;;;;;;5135167;27;20211;-69
2021/03/09 02:19:42;;;;;;;71.88;14.07;;;-2.10;1.00;;;;;;5135612;27;20206;-69
2021/03/09 02:22:40;;;;;;;71.60;14.43;;;-2.10;1.00;;;;;;5135394;27;20195;-69
2021/03/09 02:25:17;;;;;;;73.18;15.13;;;-2.10;1.00;;;;;;5114190;28;20227;-69
2021/03/09 02:28:01;;;;;;;72.50;13.52;;;-2.10;1.00;;;;;;5114322;28;20492;-69
2021/03/09 02:30:32;;;;;;;72.25;13.50;;;-2.10;1.00;;;;;;5114698;28;20290;-69
2021/03/09 02:33:07;;;;;;;72.40;14.00;;;-2.10;1.00;;;;;;5114501;28;20257;-69
2021/03/09 02:35:39;;;;;;;75.40;14.52;;;-2.10;1.00;;;;;;5114018;28;20218;-69
2021/03/09 02:38:08;;;;;;;70.45;14.98;;;-2.20;1.00;;;;;;5114328;28;20222;-69
2021/03/09 02:40:35;;;;;;;70.07;14.30;;;-2.20;1.00;;;;;;5113907;28;20207;-69
2021/03/09 02:43:06;;;;;;;75.40;13.23;;;-2.20;1.00;;;;;;5114257;28;20317;-69
2021/03/09 02:45:34;;;;;;;71.40;13.07;;;-2.20;1.00;;;;;;5113998;28;20219;-69
2021/03/09 02:48:01;;;;;;;74.22;15.25;;;-2.20;1.00;;;;;;5114103;28;20636;-69
2021/03/09 02:50:29;;;;;;;72.40;13.63;;;-2.20;1.00;;;;;;5114120;28;20645;-69
2021/03/09 02:52:59;;;;;;;69.80;13.27;;;-2.20;1.00;;;;;;5113822;28;20294;-69
2021/03/09 02:55:26;;;;;;;69.05;14.18;;;-2.30;1.00;;;;;;5114187;28;20204;-69
2021/03/09 02:57:55;;;;;;;72.07;14.32;;;-2.30;1.00;;;;;;5113989;28;20730;-69
2021/03/09 03:00:23;;;;;;;72.78;14.48;;;-2.30;1.00;;;;;;5114007;28;20211;-69
2021/03/09 03:02:51;;;;;;;69.25;13.80;;;-2.30;1.00;;;;;;5113717;27;20214;-69
2021/03/09 03:05:19;;;;;;;72.70;14.55;;;-2.30;1.00;;;;;;5113415;28;20305;-69
2021/03/09 03:07:46;;;;;;;70.15;12.85;;;-2.30;1.00;;;;;;5113352;28;20226;-69
2021/03/09 03:10:16;;;;;;;69.43;14.30;;;-2.30;1.00;;;;;;5113686;28;20298;-69
2021/03/09 03:12:44;;;;;;;72.32;14.10;;;-2.30;1.00;;;;;;5113438;28;20211;-69
2021/03/09 03:15:13;;;;;;;69.47;13.88;;;-2.30;1.00;;;;;;5113583;28;20680;-69
2021/03/09 03:17:41;;;;;;;71.90;13.43;;;-2.30;1.00;;;;;;5113250;28;20220;-69
2021/03/09 03:20:13;;;;;;;70.28;13.32;;;-2.30;1.00;;;;;;5113635;28;20207;-69
2021/03/09 03:22:42;;;;;;;71.22;13.13;;;-2.30;1.00;;;;;;5113638;28;20203;-69
2021/03/09 03:25:10;;;;;;;72.45;14.40;;;-2.40;1.00;;;;;;5113416;28;20266;-69
2021/03/09 03:27:39;;;;;;;69.38;13.18;;;-2.40;1.00;;;;;;5113306;27;20230;-69
2021/03/09 03:30:08;;;;;;;70.15;13.30;;;-2.40;1.00;;;;;;5113526;28;20236;-69
2021/03/09 03:32:35;;;;;;;73.18;13.93;;;-2.40;1.00;;;;;;5113034;28;20682;-69
2021/03/09 03:35:02;;;;;;;71.15;13.32;;;-2.40;1.00;;;;;;5112768;28;20220;-69
2021/03/09 03:37:29;;;;;;;71.80;13.52;;;-2.50;1.00;;;;;;5113467;28;20658;-69
2021/03/09 03:39:56;;;;;;;67.85;11.95;;;-2.50;1.00;;;;;;5113090;28;20581;-69
2021/03/09 03:42:22;;;;;;;71.45;12.80;;;-2.50;1.00;;;;;;5112816;28;20204;-69
2021/03/09 03:44:49;;;;;;;70.55;12.70;;;-2.50;1.00;;;;;;5113033;28;20207;-69
2021/03/09 03:47:15;;;;;;;74.15;14.80;;;-2.50;1.00;;;;;;5112896;28;20896;-69
2021/03/09 03:49:42;;;;;;;72.43;13.65;;;-2.50;1.00;;;;;;5112808;28;20241;-69
2021/03/09 03:52:17;;;;;;;71.15;13.35;;;-2.50;1.00;;;;;;5112681;28;20337;-69
2021/03/09 03:54:52;;;;;;;72.55;13.57;;;-2.60;1.00;;;;;;5112962;28;20226;-69
2021/03/09 03:57:27;;;;;;;67.90;12.73;;;-2.50;1.00;;;;;;5112644;28;20383;-69
2021/03/09 03:59:58;;;;;;;72.18;14.00;;;-2.60;1.00;;;;;;5112696;28;20220;-69
2021/03/09 04:02:27;;;;;;;70.40;13.70;;;-2.60;1.00;;;;;;5112923;28;20203;-69
2021/03/09 04:04:55;;;;;;;70.70;13.15;;;-2.60;1.00;;;;;;5112444;28;20302;-69
2021/03/09 04:07:26;;;;;;;71.68;13.63;;;-2.60;1.00;;;;;;5112162;28;20253;-69
2021/03/09 04:09:55;;;;;;;68.43;13.10;;;-2.60;1.00;;;;;;5131250;27;20282;-69
2021/03/09 04:12:25;;;;;;;72.28;14.80;;;-2.60;1.00;;;;;;5132912;27;20203;-69
2021/03/09 04:14:51;;;;;;;72.93;13.98;;;-2.60;1.00;;;;;;5128215;27;20207;-69
2021/03/09 04:17:20;;;;;;;69.00;13.10;;;-2.60;1.00;;;;;;5129562;27;20250;-69
2021/03/09 04:19:47;;;;;;;71.15;12.60;;;-2.60;1.00;;;;;;5129655;27;20622;-69
2021/03/09 04:22:15;;;;;;;73.10;13.65;;;-2.60;1.00;;;;;;5132680;27;20206;-69
2021/03/09 04:24:43;;;;;;;68.97;12.57;;;-2.60;1.00;;;;;;5132844;27;20211;-69
2021/03/09 04:27:20;;;;;;;70.13;13.65;;;-2.60;1.00;;;;;;5132845;27;20720;-69
2021/03/09 04:29:48;;;;;;;74.43;13.73;;;-2.60;1.00;;;;;;5132711;27;20198;-69
2021/03/09 04:32:16;;;;;;;69.80;12.93;;;-2.60;1.00;;;;;;5132793;27;20210;-69
2021/03/09 04:34:42;;;;;;;72.53;13.68;;;-2.60;1.00;;;;;;5132632;27;20671;-69
2021/03/09 04:37:10;;;;;;;72.60;12.82;;;-2.70;1.00;;;;;;5132461;27;20223;-69
2021/03/09 04:39:36;;;;;;;71.13;14.23;;;-2.70;1.00;;;;;;5132938;27;20293;-69
2021/03/09 04:42:03;;;;;;;70.30;12.20;;;-2.70;1.00;;;;;;5132669;27;20566;-69
2021/03/09 04:44:30;;;;;;;72.70;14.07;;;-2.70;1.00;;;;;;5132691;27;20203;-69
2021/03/09 04:46:57;;;;;;;73.65;13.80;;;-2.70;1.00;;;;;;5132123;27;20227;-69
2021/03/09 04:49:24;;;;;;;71.15;13.23;;;-2.70;1.00;;;;;;5132493;27;20645;-69
2021/03/09 04:51:50;;;;;;;72.13;13.52;;;-2.70;1.00;;;;;;5132215;27;20290;-69
2021/03/09 04:54:17;;;;;;;69.13;13.48;;;-2.70;1.00;;;;;;5132434;27;20206;-69
2021/03/09 04:56:43;;;;;;;71.65;12.80;;;-2.70;1.00;;;;;;5132463;27;20226;-69
2021/03/09 04:59:09;;;;;;;70.72;13.43;;;-2.70;1.00;;;;;;5132403;27;20298;-69
2021/03/09 05:01:38;;;;;;;69.75;13.32;;;-2.70;1.00;;;;;;5132274;27;20761;-69
2021/03/09 05:04:05;;;;;;;71.20;13.40;;;-2.70;1.00;;;;;;5132129;27;20207;-69
2021/03/09 05:06:31;;;;;;;70.68;14.05;;;-2.70;1.00;;;;;;5132351;27;20234;-70
2021/03/09 05:08:57;;;;;;;73.18;13.05;;;-2.70;1.00;;;;;;5132436;27;20231;-69
2021/03/09 05:11:24;;;;;;;70.32;12.75;;;-2.70;1.00;;;;;;5132469;27;20207;-69
2021/03/09 05:13:50;;;;;;;72.60;14.30;;;-2.70;1.00;;;;;;5132382;27;20225;-69
2021/03/09 05:16:16;;;;;;;69.90;13.30;;;-2.70;1.00;;;;;;5132162;27;20309;-70
2021/03/09 05:18:44;;;;;;;67.45;12.23;;;-2.70;1.00;;;;;;5131881;27;20631;-70
2021/03/09 05:21:10;;;;;;;70.50;13.48;;;-2.70;1.00;;;;;;5132551;27;20210;-69
2021/03/09 05:23:36;;;;;;;71.50;13.80;;;-2.70;1.00;;;;;;5132066;27;20260;-69
2021/03/09 05:26:03;;;;;;;71.00;14.23;;;-2.70;1.00;;;;;;5132174;27;20360;-69
2021/03/09 05:28:29;;;;;;;68.95;12.38;;;-2.70;1.00;;;;;;5132195;27;20281;-69
2021/03/09 05:30:56;;;;;;;70.70;13.10;;;-2.70;1.00;;;;;;5132670;27;20203;-70
2021/03/09 05:33:22;;;;;;;73.05;12.75;;;-2.70;1.00;;;;;;5135921;27;20252;-69
2021/03/09 05:35:49;;;;;;;69.82;12.38;;;-2.70;1.00;;;;;;5136074;27;20401;-69
2021/03/09 05:38:16;;;;;;;74.20;14.45;;;-2.70;1.00;;;;;;5136035;27;20203;-70
2021/03/09 05:40:42;;;;;;;73.25;16.20;;;-2.80;1.00;;;;;;5136209;27;20745;-69
2021/03/09 05:43:10;;;;;;;70.30;12.93;;;-2.80;1.00;;;;;;5135884;27;20293;-69
2021/03/09 05:45:38;;;;;;;69.38;12.57;;;-2.80;1.00;;;;;;5135708;27;20640;-69
2021/03/09 05:48:05;;;;;;;68.43;13.20;;;-2.80;1.00;;;;;;5136017;27;20227;-69
2021/03/09 05:50:31;;;;;;;72.85;13.85;;;-2.80;1.00;;;;;;5136053;27;20203;-70
2021/03/09 05:52:59;;;;;;;75.00;14.20;;;-2.70;1.00;;;;;;5133093;27;20214;-69
2021/03/09 05:55:25;;;;;;;73.40;14.00;;;-2.70;1.00;;;;;;5135420;27;20259;-69
2021/03/09 05:57:52;;;;;;;72.50;14.88;;;-2.70;1.00;;;;;;5127857;27;20769;-69
2021/03/09 06:00:19;;;;;;;70.63;13.70;;;-2.70;1.00;;;;;;5134317;27;20205;-70
2021/03/09 06:02:47;;;;;;;72.60;13.68;;;-2.70;1.00;;;;;;5135396;27;20244;-71
2021/03/09 06:05:13;;;;;;;77.53;13.15;;;-2.70;1.00;;;;;;5135433;27;20667;-70
2021/03/09 06:07:40;;;;;;;70.93;13.38;;;-2.70;1.00;;;;;;5133345;27;20223;-70
2021/03/09 06:10:21;;;;;;;73.28;13.48;;;-2.70;1.00;;;;;;5130577;27;20566;-70
2021/03/09 06:12:47;;;;;;;69.78;14.45;;;-2.60;1.00;;;;;;5134989;27;20210;-70
2021/03/09 06:15:14;;;;;;;73.05;13.10;;;-2.60;1.00;;;;;;5135330;27;20286;-70
2021/03/09 06:17:43;;;;;;;74.85;13.88;;;-2.60;1.00;;;;;;5135306;27;20223;-70
2021/03/09 06:20:19;;;;;;;71.03;13.98;;;-2.50;1.00;;;;;;5135220;27;20206;-70
2021/03/09 06:22:47;;;;;;;74.00;14.40;;;-2.50;1.00;;;;;;5135288;27;20584;-68
2021/03/09 06:25:16;;;;;;;72.70;13.98;;;-2.40;1.00;;;;;;5134897;27;20214;-68
2021/03/09 06:27:43;;;;;;;73.00;15.23;;;-2.30;1.00;;;;;;5135122;27;20309;-70
2021/03/09 06:30:13;;;;;;;72.47;14.50;;;-2.20;1.00;;;;;;5135177;27;20590;-70
2021/03/09 06:32:41;;;;;;;76.38;14.50;;;-2.20;1.00;;;;;;5134923;27;20199;-70
2021/03/09 06:35:24;;;;;;;71.95;14.38;;;-2.10;1.00;;;;;;5134847;27;20755;-68
2021/03/09 06:37:51;;;;;;;72.28;14.90;;;-2.00;1.00;;;;;;5134806;27;20242;-70
2021/03/09 06:40:20;;;;;;;76.18;14.50;;;-1.90;1.00;;;;;;5134790;27;20667;-68
2021/03/09 06:42:46;;;;;;;71.60;14.52;;;-1.90;1.00;;;;;;5133856;27;20290;-68
2021/03/09 06:45:15;;;;;;;72.10;15.57;;;-1.80;1.00;;;;;;5130981;27;20640;-68
2021/03/09 06:47:42;;;;;;;75.18;14.48;;;-1.80;1.00;;;;;;5133958;27;20226;-68
2021/03/09 06:50:11;;;;;;;77.03;14.88;;;-1.70;1.00;;;;;;5134480;27;20206;-69
2021/03/09 06:52:39;;;;;;;75.85;16.63;;;-1.60;1.00;;;;;;5134185;27;20210;-69
2021/03/09 06:55:07;;;;;;;74.60;17.40;;;-1.60;1.00;;;;;;5114214;28;20208;-69
2021/03/09 06:57:35;;;;;;;74.32;16.05;;;-1.50;1.00;;;;;;5130071;27;20585;-69
2021/03/09 07:00:01;;;;;;;74.65;16.05;;;-1.40;1.00;;;;;;5134260;27;20698;-69
2021/03/09 07:02:28;;;;;;;75.03;16.77;;;-1.40;1.00;;;;;;5134530;27;20291;-69
2021/03/09 07:05:03;;;;;;;70.97;15.23;;;-1.30;1.00;;;;;;5134189;27;20289;-69
2021/03/09 07:07:32;;;;;;;74.63;16.75;;;-1.30;1.00;;;;;;5134559;27;20305;-69
2021/03/09 07:10:00;;;;;;;76.80;18.25;;;-1.30;1.00;;;;;;5134304;27;20792;-69
2021/03/09 07:12:27;;;;;;;78.72;17.45;;;-1.30;1.00;;;;;;5134117;27;20213;-69
2021/03/09 07:14:55;;;;;;;80.28;16.52;;;-1.20;1.00;;;;;;5134281;27;20226;-68
2021/03/09 07:17:24;;;;;;;74.65;16.65;;;-1.20;1.00;;;;;;5136830;27;20309;-69
2021/03/09 07:19:52;;;;;;;78.53;16.45;;;-1.10;1.00;;;;;;5147825;27;20257;-69
2021/03/09 07:22:20;;;;;;;79.53;17.75;;;-1.00;1.00;;;;;;5147551;27;20210;-69
2021/03/09 07:24:58;;;;;;;76.82;16.92;;;-1.00;1.00;;;;;;5143557;27;20210;-69
2021/03/09 07:27:30;;;;;;;76.18;16.70;;;-0.90;1.00;;;;;;5146272;27;20227;-69
2021/03/09 07:29:59;;;;;;;76.55;16.83;;;-0.80;1.00;;;;;;5144699;27;20230;-70
2021/03/09 07:32:29;;;;;;;75.88;18.27;;;-0.60;1.00;;;;;;5147179;27;20199;-69
2021/03/09 07:34:56;;;;;;;76.45;17.50;;;-0.50;1.00;;;;;;5146889;27;20275;-69
2021/03/09 07:37:23;;;;;;;81.75;17.80;;;-0.40;1.00;;;;;;5141822;27;20211;-69
2021/03/09 07:39:50;;;;;;;76.22;17.73;;;-0.30;1.00;;;;;;5134104;27;20590;-69
2021/03/09 07:42:19;;;;;;;78.70;18.05;;;-0.10;1.00;;;;;;5133722;27;20199;-70
2021/03/09 07:44:47;;;;;;;79.88;19.95;;;0.00;1.00;;;;;;5133518;27;20693;-69
2021/03/09 07:47:18;;;;;;;76.68;18.08;;;0.10;1.00;;;;;;5133848;27;20231;-70
2021/03/09 07:49:44;;;;;;;75.95;18.25;;;0.20;1.00;;;;;;5133844;27;20292;-70
2021/03/09 07:52:16;;;;;;;76.25;16.45;;;0.40;1.00;;;;;;5133311;27;20274;-70
2021/03/09 07:55:16;;;;;;;81.07;17.67;;;0.60;1.00;;;;;;5132362;27;20214;-70
2021/03/09 07:57:43;;;;;;;75.72;18.52;;;0.80;1.00;;;;;;5128464;27;20227;-70
2021/03/09 08:00:12;;;;;;;81.53;19.60;;;1.10;1.00;;;;;;5133195;27;20209;-70
2021/03/09 08:02:54;;;;;;;83.38;18.88;;;1.30;1.00;;;;;;5133250;27;20202;-70
2021/03/09 08:05:23;;;;;;;78.55;17.92;;;1.40;1.00;;;;;;5133048;27;20249;-70
2021/03/09 08:08:02;;;;;;;77.97;18.13;;;1.50;1.00;;;;;;5133419;27;20231;-70
2021/03/09 08:10:46;;;;;;;73.85;16.95;;;1.70;1.00;;;;;;5133175;27;20198;-70
2021/03/09 08:13:23;;;;;;;73.05;16.35;;;1.90;1.00;;;;;;5133035;27;20252;-70
2021/03/09 08:15:49;;;;;;;74.05;16.00;;;2.00;1.00;;;;;;5126670;27;20199;-70
2021/03/09 08:18:43;;;;;;;78.60;17.23;;;2.00;1.00;;;;;;5133108;27;20221;-70
2021/03/09 08:21:10;;;;;;;80.97;17.33;;;2.10;1.00;;;;;;5125489;27;20201;-70
2021/03/09 08:23:57;;;;;;;75.63;17.40;;;2.20;1.00;;;;;;5132674;27;20195;-70
2021/03/09 08:26:43;;;;;;;74.03;17.13;;;2.30;1.00;;;;;;5123567;27;20250;-69
2021/03/09 08:29:35;;;;;;;80.22;17.33;;;2.40;1.00;;;;;;5125402;27;20198;-70
2021/03/09 08:32:34;;;;;;;77.43;17.15;;;2.60;1.00;;;;;;5132686;27;20209;-70
2021/03/09 08:35:36;;;;;;;73.72;15.85;;;2.80;1.00;;;;;;5069219;28;20255;-70
2021/03/09 08:38:17;;;;;;;78.25;17.27;;;3.00;1.00;;;;;;5132724;27;20219;-70
2021/03/09 08:41:13;;;;;;;80.00;18.30;;;3.10;1.00;;;;;;5131827;27;20206;-70
2021/03/09 08:43:43;;;;;;;79.00;17.67;;;3.40;1.00;;;;;;5125021;27;20318;-70
2021/03/09 08:46:14;;;;;;;80.13;20.55;;;3.60;1.00;;;;;;5125031;27;20219;-70
2021/03/09 08:48:54;;;;;;;83.90;20.27;;;3.80;1.00;;;;;;5118094;27;20229;-70
2021/03/09 08:51:43;;;;;;;79.95;18.40;;;4.00;1.00;;;;;;5112860;27;20239;-70
2021/03/09 08:54:31;;;;;;;77.85;17.63;;;4.20;1.00;;;;;;5122925;27;20198;-68
2021/03/09 08:57:00;;;;;;;76.40;17.10;;;4.40;1.00;;;;;;5132216;27;20282;-69
2021/03/09 08:59:28;;;;;;;75.78;17.02;;;4.60;1.00;;;;;;5132465;27;20202;-67
2021/03/09 09:02:08;;;;;;;77.25;16.80;;;4.70;1.00;;;;;;5132611;27;20207;-68
2021/03/09 09:04:34;;;;;;;76.43;17.52;;;4.80;1.00;;;;;;5132632;27;20301;-68
2021/03/09 09:07:17;;;;;;;77.25;19.10;;;5.00;1.00;;;;;;5134814;27;20230;-68
2021/03/09 09:09:43;;;;;;;80.07;17.83;;;5.20;1.00;;;;;;5136767;27;20207;-68
2021/03/09 09:12:24;;;;;;;74.03;17.02;;;5.40;1.00;;;;;;5136228;27;20259;-69
2021/03/09 09:15:15;;;;;;;89.20;17.25;;;5.50;1.00;;;;;;5136702;27;20217;-68
2021/03/09 09:17:43;;;;;;;76.32;17.40;;;5.70;1.00;;;;;;5133821;27;20230;-68
2021/03/09 09:20:12;;;;;;;80.32;17.60;;;5.90;1.00;;;;;;5136590;27;20747;-68
2021/03/09 09:22:40;;;;;;;80.03;18.95;;;6.00;1.00;;;;;;5136343;27;20279;-68
2021/03/09 09:25:08;;;;;;;74.43;17.35;;;6.20;1.00;;;;;;5136394;27;20231;-68
2021/03/09 09:27:40;;;;;;;74.13;16.38;;;6.30;1.00;;;;;;5136388;27;20314;-68
2021/03/09 09:30:09;;;;;;;77.60;17.33;;;6.50;1.00;;;;;;5123613;27;20655;-68
2021/03/09 09:33:00;;;;;;;77.55;17.95;;;6.80;1.00;;;;;;5135831;27;20655;-68
2021/03/09 09:35:28;;;;;;;77.55;18.23;;;7.00;1.00;;;;;;5106266;27;20256;-70
2021/03/09 09:37:57;;;;;;;75.43;18.05;;;7.20;1.00;;;;;;5136005;27;20663;-70
2021/03/09 09:40:28;;;;;;;75.82;17.20;;;7.40;1.00;;;;;;5136054;27;20195;-70
2021/03/09 09:42:57;;;;;;;75.63;16.30;;;7.60;1.00;;;;;;5109096;27;20239;-70
2021/03/09 09:45:24;;;;;;;74.40;17.63;;;7.80;1.00;;;;;;5103800;27;20212;-68
2021/03/09 09:47:52;;;;;;;76.80;17.65;;;7.90;1.00;;;;;;5126072;27;20228;-69
2021/03/09 09:50:20;;;;;;;77.65;18.35;;;8.00;1.00;;;;;;5135362;27;20283;-68
2021/03/09 09:52:59;;;;;;;77.63;18.40;;;8.10;1.00;;;;;;5136351;27;20553;-68
2021/03/09 09:55:27;;;;;;;75.93;17.85;;;8.10;1.00;;;;;;5136115;27;20199;-69
2021/03/09 09:57:55;;;;;;;70.75;16.38;;;8.20;1.00;;;;;;5135530;27;20229;-67
2021/03/09 10:00:24;;;;;;;75.32;17.67;;;8.30;1.00;;;;;;5135904;27;20203;-69
2021/03/09 10:03:18;;;;;;;78.45;16.58;;;8.50;1.00;;;;;;5135547;27;20381;-69
2021/03/09 10:05:45;;;;;;;74.13;17.05;;;8.60;1.00;;;;;;5135438;27;20314;-68
2021/03/09 10:08:32;;;;;;;74.60;18.02;;;8.60;1.00;;;;;;5135501;27;20293;-69
2021/03/09 10:11:00;;;;;;;74.22;16.63;;;8.70;1.00;;;;;;5135738;27;20204;-68
2021/03/09 10:13:26;;;;;;;81.23;18.63;;;8.90;1.00;;;;;;5135412;27;20201;-67
2021/03/09 10:15:53;;;;;;;75.78;17.88;;;9.10;1.00;;;;;;5135362;27;20473;-67
2021/03/09 10:18:28;;;;;;;78.23;18.10;;;9.30;1.00;;;;;;5134178;27;20560;-68
2021/03/09 10:21:02;;;;;;;76.97;17.97;;;9.60;1.00;;;;;;5135061;27;20491;-68
2021/03/09 10:23:30;;;;;;;74.87;17.17;;;9.80;1.00;;;;;;5135374;27;20450;-66
2021/03/09 10:25:59;;;;;;;78.17;17.87;;;10.00;1.00;;;;;;5133633;27;20506;-66
2021/03/09 10:28:26;;;;;;;73.13;17.07;;;10.20;1.00;;;;;;5128357;27;20473;-67
2021/03/09 10:30:53;;;;;;;74.37;16.87;;;10.40;1.00;;;;;;5127337;27;20937;-66
2021/03/09 10:33:19;;;;;;;74.20;17.50;;;10.70;1.00;;;;;;5123003;27;20531;-66
2021/03/09 10:36:06;;;;;;;77.50;16.63;;;11.10;1.00;;;;;;5124223;27;20509;-67
2021/03/09 10:38:34;;;;;;;75.63;17.50;;;11.20;1.00;;;;;;5121624;27;20468;-68
2021/03/09 10:41:01;;;;;;;76.27;19.13;;;11.20;1.00;;;;;;5132347;27;20593;-68
2021/03/09 10:43:41;;;;;;;74.90;18.60;;;11.30;1.00;;;;;;5134476;27;20532;-68
2021/03/09 10:46:08;;;;;;;74.37;18.33;;;11.60;1.00;;;;;;5114045;28;20515;-68
2021/03/09 10:48:35;;;;;;;76.33;16.90;;;11.90;1.00;;;;;;5114090;28;20456;-68
2021/03/09 10:51:01;;;;;;;74.50;17.67;;;12.20;1.00;;;;;;5114357;28;20537;-68
2021/03/09 10:53:27;;;;;;;71.40;17.20;;;12.60;1.00;;;;;;5114114;28;20450;-68
2021/03/09 10:55:55;;;;;;;75.53;15.37;;;12.80;1.00;;;;;;5114096;28;20586;-68
2021/03/09 10:58:21;;;;;;;73.70;17.30;;;13.30;1.00;;;;;;5120792;27;20480;-68
2021/03/09 11:00:47;;;;;;;72.40;16.37;;;13.80;1.00;;;;;;5124667;27;20957;-68
2021/03/09 11:03:14;;;;;;;70.10;15.23;;;14.00;1.00;;;;;;5128268;27;20541;-68
2021/03/09 11:05:41;;;;;;;71.67;15.93;;;13.90;1.00;;;;;;5128426;27;20548;-68
2021/03/09 11:08:07;;;;;;;70.57;15.93;;;13.70;1.00;;;;;;5127178;27;20837;-68
2021/03/09 11:10:34;;;;;;;72.20;15.13;;;13.40;1.00;;;;;;5130237;27;20936;-68
2021/03/09 11:13:01;;;;;;;72.53;16.77;;;13.20;1.00;;;;;;5133841;27;20527;-68
2021/03/09 11:15:27;;;;;;;68.37;14.33;;;13.10;1.00;;;;;;5131407;27;20996;-68
2021/03/09 11:17:54;;;;;;;72.43;15.20;;;13.00;1.00;;;;;;5133809;27;20993;-68
2021/03/09 11:20:21;;;;;;;70.50;14.23;;;13.00;1.00;;;;;;5134025;27;20527;-68
2021/03/09 11:22:47;;;;;;;69.03;13.57;;;13.00;1.00;;;;;;5133809;27;20543;-68
2021/03/09 11:25:13;;;;;;;66.47;12.80;;;13.10;1.00;;;;;;5134064;27;20527;-68
2021/03/09 11:27:40;;;;;;;67.37;12.20;;;13.20;1.00;;;;;;5134048;27;20491;-68
2021/03/09 11:30:09;;;;;;;67.17;12.33;;;13.20;1.00;;;;;;5133942;27;20822;-68
2021/03/09 11:32:35;;;;;;;65.97;12.43;;;13.20;1.00;;;;;;5133887;27;20940;-68
2021/03/09 11:35:01;;;;;;;66.67;12.70;;;13.20;1.00;;;;;;5133964;27;21027;-68
2021/03/09 11:37:28;;;;;;;66.40;12.00;;;13.40;1.00;;;;;;5133818;27;20476;-68
2021/03/09 11:39:54;;;;;;;66.57;12.53;;;13.60;1.00;;;;;;5133790;27;20453;-68
2021/03/09 11:42:20;;;;;;;68.27;12.03;;;13.80;1.00;;;;;;5133678;27;20436;-67
2021/03/09 11:44:47;;;;;;;70.03;12.67;;;14.00;1.00;;;;;;5133978;27;20531;-69
2021/03/09 11:47:14;;;;;;;69.50;12.93;;;14.40;1.00;;;;;;5133620;27;20571;-68
2021/03/09 11:49:40;;;;;;;72.87;13.40;;;14.70;1.00;;;;;;5134125;27;20880;-69
2021/03/09 11:52:07;;;;;;;64.30;12.20;;;15.10;1.00;;;;;;5133605;27;20451;-68
2021/03/09 11:54:33;;;;;;;74.20;14.70;;;15.50;1.00;;;;;;5133902;27;20441;-68
2021/03/09 11:56:59;;;;;;;67.77;13.33;;;15.80;1.00;;;;;;5125177;27;20556;-70
2021/03/09 11:59:25;;;;;;;65.97;12.00;;;16.20;1.00;;;;;;5128989;27;20472;-69
2021/03/09 12:01:52;;;;;;;66.40;11.90;;;16.30;1.00;;;;;;5133220;27;20538;-69
2021/03/09 12:04:19;;;;;;;68.80;13.87;;;16.40;1.00;;;;;;5133299;27;20532;-68
2021/03/09 12:06:45;;;;;;;66.63;12.07;;;16.40;1.00;;;;;;5132712;27;20568;-68
2021/03/09 12:09:12;;;;;;;64.70;11.27;;;16.50;1.00;;;;;;5132618;27;20971;-68
2021/03/09 12:11:38;;;;;;;62.17;9.40;;;16.70;1.00;;;;;;5129050;27;20522;-68
2021/03/09 12:14:04;;;;;;;63.30;10.30;;;16.90;1.00;;;;;;5129421;27;20451;-68
2021/03/09 12:16:31;;;;;;;62.07;9.00;;;16.90;1.00;;;;;;5132744;27;20870;-68
2021/03/09 12:18:57;;;;;;;62.27;8.90;;;17.10;1.00;;;;;;5132735;27;20894;-68
2021/03/09 12:21:25;;;;;;;62.10;9.27;;;17.50;1.00;;;;;;5133102;27;20447;-68
2021/03/09 12:23:51;;;;;;;60.30;8.43;;;17.80;1.00;;;;;;5132604;27;20453;-68
2021/03/09 12:26:18;;;;;;;61.60;9.40;;;18.00;1.00;;;;;;5132756;27;20933;-68
2021/03/09 12:28:44;;;;;;;60.27;7.80;;;18.00;1.00;;;;;;5132827;27;20543;-68
2021/03/09 12:31:10;;;;;;;61.43;8.67;;;17.90;1.00;;;;;;5132656;27;20554;-67
2021/03/09 12:33:37;;;;;;;62.37;9.50;;;18.00;1.00;;;;;;5131238;27;20799;-68
2021/03/09 12:36:04;;;;;;;63.77;10.30;;;18.30;1.00;;;;;;5132470;27;20475;-68
2021/03/09 12:38:31;;;;;;;65.00;10.40;;;18.70;1.00;;;;;;5132696;27;20470;-68
2021/03/09 12:40:57;;;;;;;62.30;9.20;;;19.20;1.00;;;;;;5132169;27;20516;-68
2021/03/09 12:43:24;;;;;;;63.10;10.30;;;19.50;1.00;;;;;;5132379;27;20443;-68
2021/03/09 12:45:50;;;;;;;66.83;12.63;;;19.70;1.00;;;;;;5132296;27;20480;-68
2021/03/09 12:48:17;;;;;;;64.50;11.83;;;20.00;1.00;;;;;;5133007;27;20440;-68
2021/03/09 12:50:43;;;;;;;69.57;14.43;;;20.40;1.00;;;;;;5132570;27;20499;-67